Overview Statistics Trail Chart Weather Telemetry Raw packets
 

This is the latest recevied weather packets stored in our database for station/object DG4CB-13. If no packets are shown the sender has not sent any weather packets the latest 10 day(s).

<< 11 12 13 14 15 16 17 >>
Time Temp. Humidity Pressure Rain* Wind** Luminosity Snow
1788261000 22.22° C 58% 1018.9 hPa - - - -
1788260400 21.67° C 59% 1019 hPa - - - -
1788259800 21.11° C 60% 1019.1 hPa - - - -
1788259200 20.56° C 62% 1019.2 hPa - - - -
1788258600 21.11° C 61% 1019.1 hPa - - - -
1788258000 21.11° C 65% 1019.3 hPa - - - -
1788257400 20.56° C 64% 1019.3 hPa - - - -
1788256800 20.56° C 66% 1019.3 hPa - - - -
1788256200 19.44° C 69% 1019.4 hPa - - - -
1788255600 18.89° C 70% 1019.4 hPa - - - -
1788255000 18.89° C 70% 1019.4 hPa - - - -
1788254408 18.89° C 70% 1019.4 hPa - - - -
1788253800 18.33° C 72% 1019.4 hPa - - - -
1788253200 18.33° C 73% 1019.4 hPa - - - -
1788252600 17.78° C 75% 1019.4 hPa - - - -
1788252000 17.22° C 77% 1019.6 hPa - - - -
1788251400 17.22° C 78% 1019.6 hPa - - - -
1788250800 17.22° C 80% 1019.5 hPa - - - -
1788250200 16.67° C 81% 1019.5 hPa - - - -
1788249600 16.11° C 83% 1019.4 hPa - - - -
1788249000 16.11° C 83% 1019.3 hPa - - - -
1788248400 16.11° C 84% 1019.2 hPa - - - -
1788247800 16.11° C 86% 1019.2 hPa - - - -
1788237600 14.44° C 91% 1018.2 hPa - - - -
1788228001 13.89° C 91% 1017.5 hPa - - - -

* Rain since midnight (hover to see other rain measurements)
** Current wind speed in m/s (hover to see current wind gust speed)